createdAt,value
2023-11-24T00:02:16.233Z,91.79
2023-11-24T00:04:45.133Z,93.92
2023-11-24T00:07:13.557Z,95.33
2023-11-24T00:09:40.713Z,94.86
2023-11-24T00:12:08.147Z,93.56
2023-11-24T00:14:35.089Z,94.88
2023-11-24T00:17:02.143Z,93.28
2023-11-24T00:19:29.049Z,94.78
2023-11-24T00:21:55.855Z,95.45
2023-11-24T00:24:24.574Z,94.72
2023-11-24T00:26:52.732Z,92.82
2023-11-24T00:29:20.440Z,94.17
2023-11-24T00:31:47.255Z,94.67
2023-11-24T00:34:14.279Z,95.80
2023-11-24T00:36:41.159Z,96.04
2023-11-24T00:39:08.231Z,96.50
2023-11-24T00:41:36.502Z,96.79
2023-11-24T00:44:04.325Z,97.44
2023-11-24T00:46:31.146Z,96.93
2023-11-24T00:48:58.470Z,95.81
2023-11-24T00:51:26.524Z,96.70
2023-11-24T00:53:53.672Z,97.22
2023-11-24T00:56:20.577Z,98.44
2023-11-24T00:58:49.815Z,94.59
2023-11-24T01:01:16.730Z,93.39
2023-11-24T01:03:43.629Z,93.25
2023-11-24T01:06:10.475Z,94.08
2023-11-24T01:08:37.271Z,96.18
2023-11-24T01:11:04.156Z,97.29
2023-11-24T01:13:33.947Z,98.14
2023-11-24T01:16:03.861Z,98.18
2023-11-24T01:18:31.095Z,97.71
2023-11-24T01:20:58.003Z,98.50
2023-11-24T01:23:24.813Z,96.38
2023-11-24T01:25:54.646Z,97.16
2023-11-24T01:28:21.738Z,97.36
2023-11-24T01:30:48.771Z,96.47
2023-11-24T01:33:17.443Z,96.43
2023-11-24T01:35:44.618Z,97.54
2023-11-24T01:38:12.264Z,96.33
2023-11-24T01:40:39.550Z,96.62
2023-11-24T01:43:07.185Z,97.42
2023-11-24T01:45:34.398Z,97.36
2023-11-24T01:48:01.191Z,96.23
2023-11-24T01:50:29.567Z,96.48
2023-11-24T01:52:56.936Z,96.85
2023-11-24T01:55:24.663Z,95.48
2023-11-24T01:57:54.091Z,96.55
2023-11-24T02:00:21.215Z,96.74
2023-11-24T02:02:48.085Z,94.18
2023-11-24T02:05:15.865Z,96.27
2023-11-24T02:07:44.589Z,95.50
2023-11-24T02:10:12.879Z,95.48
2023-11-24T02:12:39.918Z,93.52
2023-11-24T02:15:08.714Z,94.17
2023-11-24T02:17:36.735Z,95.79
2023-11-24T02:20:07.362Z,94.48
2023-11-24T02:22:39.264Z,94.94
2023-11-24T02:25:07.186Z,96.96
2023-11-24T02:27:34.005Z,96.06
2023-11-24T02:30:00.838Z,97.70
2023-11-24T02:32:27.591Z,95.68
2023-11-24T02:34:54.735Z,95.22
2023-11-24T02:37:22.119Z,96.11
2023-11-24T02:39:50.557Z,97.59
2023-11-24T02:42:17.526Z,96.14
2023-11-24T02:44:44.570Z,96.16
2023-11-24T02:47:11.770Z,97.46
2023-11-24T02:49:39.854Z,96.95
2023-11-24T02:52:07.041Z,95.36
2023-11-24T02:54:33.901Z,94.58
2023-11-24T02:57:04.575Z,94.96
2023-11-24T02:59:31.630Z,95.90
2023-11-24T03:01:58.629Z,95.10
2023-11-24T03:04:26.740Z,96.62
2023-11-24T03:06:54.058Z,96.22
2023-11-24T03:09:25.414Z,94.93
2023-11-24T03:11:54.022Z,94.80
2023-11-24T03:14:22.487Z,95.15
2023-11-24T03:16:49.503Z,93.52
2023-11-24T03:19:17.753Z,94.15
2023-11-24T03:21:45.231Z,96.36
2023-11-24T03:24:13.007Z,96.95
2023-11-24T03:26:39.881Z,97.23
2023-11-24T03:29:06.750Z,96.14
2023-11-24T03:31:35.118Z,95.67
2023-11-24T03:34:02.583Z,94.88
2023-11-24T03:36:29.584Z,95.84
2023-11-24T03:38:56.421Z,94.00
2023-11-24T03:41:23.569Z,93.26
2023-11-24T03:43:50.631Z,92.94
2023-11-24T03:46:17.735Z,92.87
2023-11-24T03:48:46.054Z,93.97
2023-11-24T03:51:12.935Z,94.48
2023-11-24T03:53:39.761Z,92.87
2023-11-24T03:56:08.225Z,93.70
2023-11-24T03:58:35.193Z,93.33
2023-11-24T04:01:02.742Z,94.17
2023-11-24T04:03:30.226Z,93.49
2023-11-24T04:05:58.627Z,93.93
2023-11-24T04:08:25.455Z,91.39
2023-11-24T04:10:52.342Z,91.47
2023-11-24T04:13:19.155Z,90.76
2023-11-24T04:15:46.043Z,92.21
2023-11-24T04:18:13.599Z,92.74
2023-11-24T04:20:40.584Z,92.36
2023-11-24T04:23:10.064Z,93.94
2023-11-24T04:25:37.561Z,93.18
2023-11-24T04:28:04.735Z,92.52
2023-11-24T04:30:31.610Z,92.29
2023-11-24T04:32:58.508Z,92.11
2023-11-24T04:35:25.572Z,92.66
2023-11-24T04:37:52.324Z,91.77
2023-11-24T04:40:20.737Z,92.36
2023-11-24T04:42:47.652Z,90.87
2023-11-24T04:45:15.147Z,92.19
2023-11-24T04:47:41.957Z,90.92
2023-11-24T04:50:09.522Z,91.98
2023-11-24T04:52:36.587Z,90.81
2023-11-24T04:55:05.052Z,91.73
2023-11-24T04:57:34.460Z,91.44
2023-11-24T05:00:01.826Z,91.12
2023-11-24T05:02:28.855Z,91.08
2023-11-24T05:04:56.532Z,88.89
2023-11-24T05:07:24.755Z,90.66
2023-11-24T05:09:51.846Z,87.31
2023-11-24T05:12:18.924Z,88.66
2023-11-24T05:14:47.832Z,87.99
2023-11-24T05:17:14.676Z,88.41
2023-11-24T05:19:41.880Z,88.41
2023-11-24T05:22:08.836Z,87.48
2023-11-24T05:24:35.949Z,87.99
2023-11-24T05:27:02.902Z,87.27
2023-11-24T05:29:30.580Z,86.63
2023-11-24T05:31:58.846Z,87.82
2023-11-24T05:34:26.825Z,90.07
2023-11-24T05:36:53.750Z,88.49
2023-11-24T05:39:20.576Z,89.83
2023-11-24T05:41:47.458Z,89.40
2023-11-24T05:44:16.785Z,89.09
2023-11-24T05:46:43.632Z,88.47
2023-11-24T05:49:11.976Z,87.40
2023-11-24T05:51:38.872Z,88.08
2023-11-24T05:54:07.165Z,88.75
2023-11-24T05:56:33.974Z,88.64
2023-11-24T05:59:00.786Z,89.19
2023-11-24T06:01:27.953Z,87.25
2023-11-24T06:03:54.879Z,88.11
2023-11-24T06:06:23.146Z,88.30
2023-11-24T06:08:49.969Z,88.59
2023-11-24T06:11:19.433Z,87.92
2023-11-24T06:13:47.477Z,87.73
2023-11-24T06:16:14.370Z,88.75
2023-11-24T06:18:41.275Z,88.72
2023-11-24T06:21:13.060Z,85.61
2023-11-24T06:23:41.409Z,84.02
2023-11-24T06:26:09.759Z,82.77
2023-11-24T06:28:36.886Z,82.81
2023-11-24T06:31:04.456Z,83.51
2023-11-24T06:33:31.414Z,82.01
2023-11-24T06:35:59.907Z,82.61
2023-11-24T06:38:26.902Z,84.26
2023-11-24T06:40:55.011Z,82.64
2023-11-24T06:43:22.568Z,82.02
2023-11-24T06:45:49.365Z,83.13
2023-11-24T06:48:16.335Z,82.72
2023-11-24T06:50:43.848Z,82.18
2023-11-24T06:53:10.786Z,82.61
2023-11-24T06:55:38.409Z,81.31
2023-11-24T06:58:08.585Z,79.19
2023-11-24T07:00:36.243Z,78.39
2023-11-24T07:03:03.346Z,79.17
2023-11-24T07:05:30.268Z,77.76
2023-11-24T07:07:57.080Z,77.73
2023-11-24T07:10:24.095Z,76.90
2023-11-24T07:12:50.987Z,76.33
2023-11-24T07:15:19.442Z,76.57
2023-11-24T07:17:46.481Z,75.51
2023-11-24T07:20:13.479Z,75.51
2023-11-24T07:22:41.238Z,75.37
2023-11-24T07:25:09.505Z,75.30
2023-11-24T07:27:36.293Z,73.50
2023-11-24T07:30:03.457Z,71.60
2023-11-24T07:32:31.636Z,72.15
2023-11-24T07:34:58.581Z,72.41
2023-11-24T07:37:27.856Z,70.58
2023-11-24T07:39:54.923Z,70.98
2023-11-24T07:42:24.494Z,71.74
2023-11-24T07:44:51.353Z,70.19
2023-11-24T07:47:20.034Z,69.88
2023-11-24T07:49:48.294Z,70.67
2023-11-24T07:52:15.216Z,71.43
2023-11-24T07:54:42.173Z,71.50
2023-11-24T07:57:09.228Z,71.85
2023-11-24T07:59:36.744Z,73.41
2023-11-24T08:02:04.076Z,71.91
2023-11-24T08:04:31.132Z,70.23
2023-11-24T08:06:59.506Z,69.86
2023-11-24T08:09:26.829Z,70.25
2023-11-24T08:11:53.750Z,69.06
2023-11-24T08:14:24.891Z,69.37
2023-11-24T08:16:52.521Z,69.10
2023-11-24T08:19:23.761Z,69.14
2023-11-24T08:21:50.704Z,68.85
2023-11-24T08:24:19.106Z,69.13
2023-11-24T08:26:46.072Z,68.02
2023-11-24T08:29:13.471Z,67.56
2023-11-24T08:31:45.557Z,67.61
2023-11-24T08:34:14.292Z,65.18
2023-11-24T08:36:41.729Z,65.93
2023-11-24T08:39:14.336Z,66.03
2023-11-24T08:41:46.312Z,65.46
2023-11-24T08:44:13.394Z,63.85
2023-11-24T08:46:40.764Z,64.98
2023-11-24T08:49:10.056Z,64.20
2023-11-24T08:51:37.087Z,64.42
2023-11-24T08:54:08.274Z,64.67
2023-11-24T08:56:35.305Z,63.62
2023-11-24T08:59:09.759Z,62.75
2023-11-24T09:01:37.914Z,63.52
2023-11-24T09:04:05.409Z,61.48
2023-11-24T09:06:32.919Z,62.19
2023-11-24T09:08:59.875Z,61.67
2023-11-24T09:11:27.856Z,62.75
2023-11-24T09:13:55.481Z,63.41
2023-11-24T09:16:23.810Z,63.22
2023-11-24T09:18:50.693Z,62.04
2023-11-24T09:21:18.965Z,61.10
2023-11-24T09:23:46.493Z,61.35
2023-11-24T09:26:13.859Z,60.60
2023-11-24T09:28:40.892Z,61.34
2023-11-24T09:31:14.158Z,61.52
2023-11-24T09:33:42.747Z,60.71
2023-11-24T09:36:10.519Z,60.73
2023-11-24T09:38:37.962Z,60.26
2023-11-24T09:41:09.454Z,60.94
2023-11-24T09:43:37.359Z,59.27
2023-11-24T09:46:04.882Z,58.27
2023-11-24T09:48:33.775Z,59.16
2023-11-24T09:51:05.021Z,56.79
2023-11-24T09:53:34.841Z,57.13
2023-11-24T09:56:02.046Z,55.48
2023-11-24T09:58:28.855Z,55.10
2023-11-24T10:00:59.765Z,54.85
2023-11-24T10:03:28.914Z,54.05
2023-11-24T10:05:55.731Z,52.24
2023-11-24T10:08:25.371Z,52.27
2023-11-24T10:10:52.135Z,53.34
2023-11-24T10:13:18.900Z,52.79
2023-11-24T10:15:52.007Z,52.80
2023-11-24T10:18:19.793Z,52.94
2023-11-24T10:20:46.519Z,53.40
2023-11-24T10:23:13.985Z,54.71
2023-11-24T10:25:42.146Z,53.18
2023-11-24T10:28:09.706Z,52.36
2023-11-24T10:30:38.035Z,52.37
2023-11-24T10:33:06.253Z,50.85
2023-11-24T10:35:33.498Z,51.04
2023-11-24T10:38:01.994Z,50.81
2023-11-24T10:40:29.933Z,52.19
2023-11-24T10:42:58.743Z,53.19
2023-11-24T10:45:31.522Z,52.82
2023-11-24T10:48:07.526Z,52.06
2023-11-24T10:50:39.564Z,51.73
2023-11-24T10:53:11.547Z,52.49
2023-11-24T10:55:39.513Z,52.42
2023-11-24T10:58:10.451Z,52.70
2023-11-24T11:00:38.706Z,52.02
2023-11-24T11:03:08.766Z,53.28
2023-11-24T11:05:47.201Z,54.37
2023-11-24T11:08:21.759Z,55.05
2023-11-24T11:11:16.450Z,55.28
2023-11-24T11:13:45.817Z,55.14
2023-11-24T11:16:15.929Z,56.56
2023-11-24T11:18:42.994Z,54.94
2023-11-24T11:21:11.534Z,55.12
2023-11-24T11:23:41.020Z,56.23
2023-11-24T11:26:09.093Z,56.88
2023-11-24T11:28:38.004Z,55.91
2023-11-24T11:31:35.338Z,55.70
2023-11-24T11:34:17.993Z,55.85
2023-11-24T11:36:50.458Z,55.78
2023-11-24T11:39:20.938Z,55.75
2023-11-24T11:41:52.042Z,56.47
2023-11-24T11:44:21.785Z,56.10
2023-11-24T11:47:21.875Z,55.75
2023-11-24T11:49:52.821Z,55.70
2023-11-24T11:52:23.777Z,55.44
2023-11-24T11:54:52.810Z,55.09
2023-11-24T11:57:21.901Z,55.89
2023-11-24T11:59:49.834Z,55.29
2023-11-24T12:02:22.822Z,56.28
2023-11-24T12:04:50.742Z,57.06
2023-11-24T12:07:20.336Z,57.13
2023-11-24T12:09:48.657Z,58.77
2023-11-24T12:12:15.780Z,59.69
2023-11-24T12:14:43.673Z,60.69
2023-11-24T12:17:11.732Z,60.84
2023-11-24T12:19:41.828Z,61.28
2023-11-24T12:22:11.560Z,61.54
2023-11-24T12:24:42.556Z,62.22
2023-11-24T12:27:10.771Z,62.07
2023-11-24T12:29:42.462Z,63.07
2023-11-24T12:32:11.236Z,63.65
2023-11-24T12:34:43.708Z,63.72
2023-11-24T12:37:11.285Z,65.51
2023-11-24T12:39:40.741Z,65.04
2023-11-24T12:42:08.188Z,64.64
2023-11-24T12:44:39.809Z,64.77
2023-11-24T12:47:10.150Z,64.90
2023-11-24T12:50:00.753Z,65.65
2023-11-24T12:52:29.116Z,66.12
2023-11-24T12:54:57.025Z,64.96
2023-11-24T12:57:25.278Z,66.69
2023-11-24T12:59:52.575Z,67.41
2023-11-24T13:02:21.179Z,68.87
2023-11-24T13:04:49.582Z,68.78
2023-11-24T13:07:18.370Z,69.65
2023-11-24T13:09:45.657Z,68.69
2023-11-24T13:12:18.193Z,69.77
2023-11-24T13:14:46.695Z,71.26
2023-11-24T13:17:13.703Z,72.95
2023-11-24T13:19:40.724Z,71.77
2023-11-24T13:22:11.257Z,72.51
2023-11-24T13:24:39.771Z,72.33
2023-11-24T13:27:06.863Z,71.77
2023-11-24T13:29:34.028Z,71.95
2023-11-24T13:32:01.830Z,71.41
2023-11-24T13:34:29.478Z,71.55
2023-11-24T13:36:59.073Z,71.51
2023-11-24T13:39:30.110Z,72.93
2023-11-24T13:42:00.114Z,71.93
2023-11-24T13:44:27.094Z,71.20
2023-11-24T13:47:00.361Z,71.02
2023-11-24T13:49:27.319Z,71.89
2023-11-24T13:51:54.336Z,71.64
2023-11-24T13:54:24.467Z,70.80
2023-11-24T13:56:53.638Z,70.30
2023-11-24T13:59:22.386Z,71.18
2023-11-24T14:01:50.593Z,70.04
2023-11-24T14:04:17.897Z,70.52
2023-11-24T14:06:45.767Z,70.40
2023-11-24T14:09:20.716Z,70.52
2023-11-24T14:11:48.792Z,71.58
2023-11-24T14:14:16.473Z,70.86
2023-11-24T14:16:45.299Z,70.45
2023-11-24T14:19:12.565Z,71.10
2023-11-24T14:21:40.444Z,70.99
2023-11-24T14:24:08.449Z,71.74
2023-11-24T14:26:35.923Z,71.07
2023-11-24T14:29:05.461Z,71.27
2023-11-24T14:31:33.198Z,69.98
2023-11-24T14:34:02.672Z,71.65
2023-11-24T14:36:29.793Z,70.38
2023-11-24T14:38:57.763Z,70.25
2023-11-24T14:41:25.038Z,70.12
2023-11-24T14:43:52.307Z,69.59
2023-11-24T14:46:22.632Z,70.15
2023-11-24T14:48:50.538Z,69.40
2023-11-24T14:51:19.312Z,68.11
2023-11-24T14:53:46.251Z,67.81
2023-11-24T14:56:16.929Z,67.88
2023-11-24T14:58:44.744Z,68.27
2023-11-24T15:01:11.862Z,68.45
2023-11-24T15:03:40.911Z,68.56
2023-11-24T15:06:12.312Z,67.88
2023-11-24T15:08:54.969Z,68.93
2023-11-24T15:11:22.953Z,67.66
2023-11-24T15:13:54.249Z,67.13
2023-11-24T15:16:29.637Z,67.62
2023-11-24T15:18:57.160Z,68.19
2023-11-24T15:21:31.383Z,67.45
2023-11-24T15:24:00.001Z,67.62
2023-11-24T15:26:27.209Z,67.78
2023-11-24T15:28:57.736Z,67.08
2023-11-24T15:31:28.387Z,67.39
2023-11-24T15:33:55.960Z,66.99
2023-11-24T15:36:29.417Z,67.17
2023-11-24T15:38:57.743Z,67.88
2023-11-24T15:41:30.604Z,67.74
2023-11-24T15:43:57.685Z,67.46
2023-11-24T15:46:30.956Z,66.85
2023-11-24T15:48:58.785Z,67.97
2023-11-24T15:51:27.136Z,67.51
2023-11-24T15:53:54.505Z,66.74
2023-11-24T15:56:28.211Z,67.10
2023-11-24T15:58:57.580Z,67.52
2023-11-24T16:01:24.467Z,68.65
2023-11-24T16:03:51.540Z,67.75
2023-11-24T16:06:21.684Z,63.92
2023-11-24T16:08:55.606Z,63.16
2023-11-24T16:11:29.689Z,63.82
2023-11-24T16:13:57.954Z,63.90
2023-11-24T16:16:26.750Z,63.64
2023-11-24T16:18:53.688Z,63.83
2023-11-24T16:21:20.873Z,64.03
2023-11-24T16:23:47.976Z,64.42
2023-11-24T16:26:14.909Z,64.09
2023-11-24T16:28:43.418Z,65.23
2023-11-24T16:31:13.411Z,65.81
2023-11-24T16:33:42.021Z,67.18
2023-11-24T16:36:10.914Z,67.92
2023-11-24T16:38:40.752Z,69.34
2023-11-24T16:41:09.583Z,68.69
2023-11-24T16:43:36.398Z,68.28
2023-11-24T16:46:07.031Z,68.73
2023-11-24T16:48:35.526Z,69.93
2023-11-24T16:51:03.770Z,69.98
2023-11-24T16:53:30.539Z,70.98
2023-11-24T16:55:57.489Z,70.81
2023-11-24T16:58:24.358Z,71.38
2023-11-24T17:00:51.136Z,72.61
2023-11-24T17:03:18.105Z,72.09
2023-11-24T17:05:47.361Z,72.02
2023-11-24T17:08:14.254Z,71.44
2023-11-24T17:10:41.058Z,70.46
2023-11-24T17:13:09.123Z,70.81
2023-11-24T17:15:35.950Z,71.68
2023-11-24T17:18:05.215Z,71.40
2023-11-24T17:20:32.082Z,71.09
2023-11-24T17:23:00.478Z,71.29
2023-11-24T17:25:35.241Z,70.73
2023-11-24T17:28:04.584Z,71.30
2023-11-24T17:30:31.475Z,70.27
2023-11-24T17:32:58.406Z,70.27
2023-11-24T17:35:25.709Z,69.99
2023-11-24T17:37:53.777Z,70.64
2023-11-24T17:40:23.375Z,70.91
2023-11-24T17:42:50.484Z,71.75
2023-11-24T17:45:17.520Z,71.74
2023-11-24T17:47:47.001Z,71.69
2023-11-24T17:50:20.451Z,71.74
2023-11-24T17:52:49.290Z,70.96
2023-11-24T17:55:16.303Z,70.50
2023-11-24T17:57:44.763Z,70.73
2023-11-24T18:00:14.620Z,72.83
2023-11-24T18:02:41.666Z,73.05
2023-11-24T18:05:08.633Z,71.96
2023-11-24T18:07:35.633Z,72.19
2023-11-24T18:10:03.953Z,71.78
2023-11-24T18:12:31.665Z,72.03
2023-11-24T18:15:01.476Z,71.92
2023-11-24T18:17:28.299Z,71.60
2023-11-24T18:19:56.126Z,71.61
2023-11-24T18:22:23.295Z,71.77
2023-11-24T18:24:50.193Z,72.06
2023-11-24T18:27:17.449Z,71.62
2023-11-24T18:29:44.250Z,71.04
2023-11-24T18:32:12.860Z,70.82
2023-11-24T18:34:40.104Z,70.91
2023-11-24T18:37:07.167Z,71.42
2023-11-24T18:39:34.078Z,70.68
2023-11-24T18:42:00.894Z,71.65
2023-11-24T18:44:27.755Z,71.85
2023-11-24T18:46:54.569Z,71.74
2023-11-24T18:49:22.869Z,71.06
2023-11-24T18:51:49.713Z,70.89
2023-11-24T18:54:16.565Z,70.56
2023-11-24T18:56:43.301Z,69.99
2023-11-24T18:59:11.609Z,69.88
2023-11-24T19:01:38.622Z,70.75
2023-11-24T19:04:05.750Z,71.23
2023-11-24T19:06:34.122Z,70.28
2023-11-24T19:09:01.078Z,71.56
2023-11-24T19:11:27.903Z,70.78
2023-11-24T19:13:54.725Z,70.40
2023-11-24T19:16:21.624Z,71.01
2023-11-24T19:18:48.657Z,71.30
2023-11-24T19:21:15.541Z,70.97
2023-11-24T19:23:43.812Z,71.17
2023-11-24T19:26:13.229Z,71.22
2023-11-24T19:28:41.752Z,70.74
2023-11-24T19:31:08.873Z,71.38
2023-11-24T19:33:36.065Z,70.84
2023-11-24T19:36:05.096Z,71.05
2023-11-24T19:38:32.060Z,71.45
2023-11-24T19:41:00.317Z,71.62
2023-11-24T19:43:27.220Z,72.67
2023-11-24T19:45:54.271Z,73.41
2023-11-24T19:48:22.932Z,72.57
2023-11-24T19:50:50.130Z,71.81
2023-11-24T19:53:16.917Z,72.38
2023-11-24T19:55:43.706Z,71.64
2023-11-24T19:58:11.953Z,71.39
2023-11-24T20:00:38.844Z,71.58
2023-11-24T20:03:05.795Z,72.16
2023-11-24T20:05:32.674Z,71.38
2023-11-24T20:07:59.442Z,72.24
2023-11-24T20:10:26.634Z,71.85
2023-11-24T20:12:56.945Z,71.81
2023-11-24T20:15:25.360Z,73.50
2023-11-24T20:17:52.278Z,72.64
2023-11-24T20:20:19.176Z,72.06
2023-11-24T20:22:46.560Z,72.10
2023-11-24T20:25:13.408Z,71.99
2023-11-24T20:27:40.255Z,71.77
2023-11-24T20:30:12.931Z,71.64
2023-11-24T20:32:41.222Z,72.17
2023-11-24T20:35:09.146Z,72.71
2023-11-24T20:37:36.044Z,72.90
2023-11-24T20:40:04.517Z,72.16
2023-11-24T20:42:31.554Z,72.18
2023-11-24T20:44:58.343Z,72.65
2023-11-24T20:47:25.158Z,72.47
2023-11-24T20:49:53.383Z,72.41
2023-11-24T20:52:21.477Z,72.69
2023-11-24T20:54:48.352Z,73.59
2023-11-24T20:57:15.209Z,73.39
2023-11-24T20:59:41.998Z,72.94
2023-11-24T21:02:09.210Z,72.08
2023-11-24T21:04:36.303Z,72.65
2023-11-24T21:07:06.016Z,72.18
2023-11-24T21:09:33.048Z,71.14
2023-11-24T21:11:59.858Z,72.06
2023-11-24T21:14:27.530Z,71.65
2023-11-24T21:16:54.434Z,73.09
2023-11-24T21:19:21.300Z,72.24
2023-11-24T21:21:48.135Z,71.52
2023-11-24T21:24:16.391Z,71.12
2023-11-24T21:26:43.270Z,70.92
2023-11-24T21:29:10.206Z,71.36
2023-11-24T21:31:37.122Z,71.95
2023-11-24T21:34:04.140Z,70.87
2023-11-24T21:36:31.877Z,70.05
2023-11-24T21:38:58.716Z,70.52
2023-11-24T21:41:27.264Z,70.50
2023-11-24T21:43:54.080Z,70.24
2023-11-24T21:46:21.457Z,71.02
2023-11-24T21:48:48.353Z,71.19
2023-11-24T21:51:17.824Z,71.61
2023-11-24T21:53:44.774Z,71.56
2023-11-24T21:56:12.940Z,70.27
2023-11-24T21:58:41.217Z,70.72
2023-11-24T22:01:08.189Z,70.26
2023-11-24T22:03:35.114Z,70.50
2023-11-24T22:06:02.036Z,70.25
2023-11-24T22:08:28.940Z,70.51
2023-11-24T22:10:55.864Z,70.70
2023-11-24T22:13:22.832Z,71.59
2023-11-24T22:15:51.100Z,71.52
2023-11-24T22:18:18.799Z,71.77
2023-11-24T22:20:45.729Z,71.58
2023-11-24T22:23:13.672Z,71.17
2023-11-24T22:25:40.527Z,71.03
2023-11-24T22:28:07.457Z,70.74
2023-11-24T22:30:34.353Z,70.18
2023-11-24T22:33:03.294Z,71.89
2023-11-24T22:35:30.173Z,71.35
2023-11-24T22:37:57.008Z,70.99
2023-11-24T22:40:24.018Z,71.46
2023-11-24T22:42:52.316Z,72.13
2023-11-24T22:45:20.126Z,72.36
2023-11-24T22:47:47.624Z,72.83
2023-11-24T22:50:17.785Z,70.94
2023-11-24T22:52:45.708Z,71.03
2023-11-24T22:55:12.672Z,70.37
2023-11-24T22:57:40.938Z,71.33
2023-11-24T23:00:13.918Z,71.22
2023-11-24T23:02:40.994Z,71.24
2023-11-24T23:05:09.327Z,70.34
2023-11-24T23:07:37.798Z,70.58
2023-11-24T23:10:06.489Z,70.45
2023-11-24T23:12:33.327Z,70.54
2023-11-24T23:15:00.745Z,70.25
2023-11-24T23:17:27.652Z,71.43
2023-11-24T23:19:54.513Z,71.70
2023-11-24T23:22:31.127Z,72.12
2023-11-24T23:25:07.146Z,71.07
2023-11-24T23:27:35.948Z,70.93
2023-11-24T23:30:02.876Z,71.25
2023-11-24T23:32:29.678Z,70.80
2023-11-24T23:34:56.769Z,71.34
2023-11-24T23:37:23.615Z,71.21
2023-11-24T23:39:51.166Z,71.96
2023-11-24T23:42:19.419Z,71.46
2023-11-24T23:44:46.189Z,72.16
2023-11-24T23:47:13.056Z,72.04
2023-11-24T23:49:40.348Z,72.20
2023-11-24T23:52:07.405Z,72.01
2023-11-24T23:54:34.252Z,72.03
2023-11-24T23:57:01.042Z,72.55
2023-11-24T23:59:29.710Z,72.79
